Time;durP1;ratioP1;P1;durP2;ratioP2;P2;SDS_P1;SDS_P2;PMS_P1;PMS_P2;Temp;Humidity;BMP_temperature;BMP_pressure;BME280_temperature;BME280_humidity;BME280_pressure;Samples;Min_cycle;Max_cycle;Signal;HPM_P1;HPM_P2
2022/07/28 00:00:29;;;;;;;3.20;1.33;;;;;;;;;;5027594;28;20068;-77
2022/07/28 00:02:54;;;;;;;4.43;1.70;;;;;;;;;;5027116;28;20622;-80
2022/07/28 00:05:20;;;;;;;2.53;1.30;;;;;;;;;;5027209;28;20090;-78
2022/07/28 00:07:45;;;;;;;4.72;1.90;;;;;;;;;;5027383;28;20040;-79
2022/07/28 00:10:11;;;;;;;5.50;1.58;;;;;;;;;;5026254;28;20045;-80
2022/07/28 00:12:37;;;;;;;3.20;1.67;;;;;;;;;;5027422;28;20018;-80
2022/07/28 00:15:04;;;;;;;3.53;1.35;;;;;;;;;;5026052;28;20111;-78
2022/07/28 00:17:29;;;;;;;3.58;1.63;;;;;;;;;;5027522;28;20057;-79
2022/07/28 00:19:54;;;;;;;6.70;1.42;;;;;;;;;;5026141;28;20470;-80
2022/07/28 00:22:20;;;;;;;2.65;1.35;;;;;;;;;;5027134;28;20025;-78
2022/07/28 00:24:45;;;;;;;4.43;1.42;;;;;;;;;;5026943;28;20017;-78
2022/07/28 00:27:12;;;;;;;3.83;1.30;;;;;;;;;;5027544;28;20029;-79
2022/07/28 00:29:37;;;;;;;6.03;1.40;;;;;;;;;;5027327;28;20525;-79
2022/07/28 00:32:03;;;;;;;6.28;1.35;;;;;;;;;;5027300;28;20112;-79
2022/07/28 00:34:29;;;;;;;2.65;1.20;;;;;;;;;;5027089;28;20572;-76
2022/07/28 00:36:54;;;;;;;2.53;1.27;;;;;;;;;;5026896;28;20026;-78
2022/07/28 00:39:19;;;;;;;5.45;1.40;;;;;;;;;;5026947;28;20021;-78
2022/07/28 00:41:45;;;;;;;5.18;1.30;;;;;;;;;;5027299;28;20060;-77
2022/07/28 00:44:10;;;;;;;3.92;1.48;;;;;;;;;;5025645;28;20595;-79
2022/07/28 00:46:36;;;;;;;4.00;1.30;;;;;;;;;;5027424;28;20112;-78
2022/07/28 00:49:01;;;;;;;3.58;1.20;;;;;;;;;;5026929;28;20222;-79
2022/07/28 00:51:27;;;;;;;6.10;1.50;;;;;;;;;;5026873;28;20026;-79
2022/07/28 00:53:54;;;;;;;4.20;1.40;;;;;;;;;;5026737;28;20492;-79
2022/07/28 00:56:20;;;;;;;4.65;1.60;;;;;;;;;;5026951;28;20026;-78
2022/07/28 00:58:46;;;;;;;4.07;1.60;;;;;;;;;;5026940;28;20045;-79
2022/07/28 01:01:14;;;;;;;4.10;1.63;;;;;;;;;;5026710;28;20035;-80
2022/07/28 01:03:44;;;;;;;3.72;1.50;;;;;;;;;;5026493;28;20038;-79
2022/07/28 01:06:21;;;;;;;3.47;1.50;;;;;;;;;;5026826;28;20029;-78
2022/07/28 01:09:25;;;;;;;5.93;1.40;;;;;;;;;;5026735;28;20662;-79
2022/07/28 01:12:00;;;;;;;7.28;1.38;;;;;;;;;;5026613;28;20026;-78
2022/07/28 01:14:47;;;;;;;3.30;1.52;;;;;;;;;;5026468;28;20380;-79
2022/07/28 01:17:28;;;;;;;7.47;1.52;;;;;;;;;;5026762;28;20033;-80
2022/07/28 01:20:27;;;;;;;5.78;1.50;;;;;;;;;;5026704;28;20045;-79
2022/07/28 01:23:31;;;;;;;4.82;1.58;;;;;;;;;;5030060;28;20040;-78
2022/07/28 01:26:12;;;;;;;4.25;1.50;;;;;;;;;;5036398;28;20090;-77
2022/07/28 01:29:00;;;;;;;3.70;1.50;;;;;;;;;;5026525;28;20388;-78
2022/07/28 01:31:35;;;;;;;3.33;1.50;;;;;;;;;;5027386;28;20032;-78
2022/07/28 01:34:06;;;;;;;3.50;1.35;;;;;;;;;;5029725;28;20026;-78
2022/07/28 01:36:37;;;;;;;4.25;1.40;;;;;;;;;;5029689;28;20029;-78
2022/07/28 01:39:03;;;;;;;3.97;1.45;;;;;;;;;;5029793;28;20041;-78
2022/07/28 01:41:31;;;;;;;6.85;1.70;;;;;;;;;;5029954;28;20396;-78
2022/07/28 01:44:01;;;;;;;3.22;1.40;;;;;;;;;;5029766;28;20033;-76
2022/07/28 01:46:28;;;;;;;3.83;1.50;;;;;;;;;;5029688;28;20025;-79
2022/07/28 01:48:55;;;;;;;4.93;1.52;;;;;;;;;;5029490;28;20060;-78
2022/07/28 01:51:23;;;;;;;5.55;1.40;;;;;;;;;;5029263;28;20021;-79
2022/07/28 01:53:51;;;;;;;3.28;1.30;;;;;;;;;;5029904;28;20385;-78
2022/07/28 01:56:19;;;;;;;5.22;1.40;;;;;;;;;;5028293;28;20074;-78
2022/07/28 01:58:46;;;;;;;4.22;1.30;;;;;;;;;;5029458;28;20025;-78
2022/07/28 02:01:12;;;;;;;4.15;1.10;;;;;;;;;;5029358;28;20045;-78
2022/07/28 02:03:40;;;;;;;2.83;1.35;;;;;;;;;;5029495;28;20178;-78
2022/07/28 02:06:06;;;;;;;6.60;1.35;;;;;;;;;;5028995;28;20026;-78
2022/07/28 02:08:34;;;;;;;4.78;1.60;;;;;;;;;;5029393;28;20493;-80
2022/07/28 02:13:47;;;;;;;3.70;1.20;;;;;;;;;;5029452;28;20121;-79
2022/07/28 02:16:14;;;;;;;3.22;1.25;;;;;;;;;;5029271;28;20047;-79
2022/07/28 02:18:42;;;;;;;2.53;1.20;;;;;;;;;;5029291;28;20029;-78
2022/07/28 02:21:09;;;;;;;2.97;1.13;;;;;;;;;;5029035;28;20396;-79
2022/07/28 02:23:36;;;;;;;3.80;1.20;;;;;;;;;;5029248;28;20077;-77
2022/07/28 02:26:05;;;;;;;3.25;1.10;;;;;;;;;;5028890;28;20507;-79
2022/07/28 02:28:30;;;;;;;3.33;1.23;;;;;;;;;;5029046;28;20025;-79
2022/07/28 02:31:12;;;;;;;2.42;0.90;;;;;;;;;;5029116;28;20037;-77
2022/07/28 02:33:40;;;;;;;6.28;1.20;;;;;;;;;;5029165;28;20163;-78
2022/07/28 02:36:14;;;;;;;4.57;1.17;;;;;;;;;;5029072;28;20025;-78
2022/07/28 02:38:43;;;;;;;3.78;1.20;;;;;;;;;;5028936;28;20034;-78
2022/07/28 02:41:17;;;;;;;2.90;1.20;;;;;;;;;;5028749;28;20049;-79
2022/07/28 02:43:46;;;;;;;3.28;1.20;;;;;;;;;;5027698;28;20041;-79
2022/07/28 02:46:15;;;;;;;6.00;1.00;;;;;;;;;;5028684;28;20106;-77
2022/07/28 02:48:46;;;;;;;2.42;0.93;;;;;;;;;;5028722;28;20100;-78
2022/07/28 02:51:12;;;;;;;7.13;1.20;;;;;;;;;;5028757;28;20037;-79
2022/07/28 02:53:38;;;;;;;4.88;1.40;;;;;;;;;;5028789;28;20022;-79
2022/07/28 02:56:04;;;;;;;4.43;1.17;;;;;;;;;;5028389;28;20070;-78
2022/07/28 02:58:31;;;;;;;2.35;1.02;;;;;;;;;;5027388;28;20643;-79
2022/07/28 03:00:58;;;;;;;2.72;1.00;;;;;;;;;;5028344;28;20103;-79
2022/07/28 03:03:24;;;;;;;4.28;1.20;;;;;;;;;;5028406;28;20120;-78
2022/07/28 03:05:51;;;;;;;5.90;1.25;;;;;;;;;;5028504;28;20022;-78
2022/07/28 03:08:16;;;;;;;4.00;0.90;;;;;;;;;;5028509;28;20060;-78
2022/07/28 03:10:42;;;;;;;3.33;1.20;;;;;;;;;;5028329;28;20060;-79
2022/07/28 03:13:08;;;;;;;3.83;1.10;;;;;;;;;;5028307;28;20066;-78
2022/07/28 03:15:35;;;;;;;4.97;1.10;;;;;;;;;;5028049;28;20075;-78
2022/07/28 03:18:02;;;;;;;2.67;1.00;;;;;;;;;;5028077;28;20060;-80
2022/07/28 03:20:28;;;;;;;2.58;1.02;;;;;;;;;;5028172;28;20029;-78
2022/07/28 03:22:54;;;;;;;1.83;1.00;;;;;;;;;;5028163;28;20026;-77
2022/07/28 03:25:27;;;;;;;7.95;1.15;;;;;;;;;;5028132;28;20036;-79
2022/07/28 03:27:54;;;;;;;1.75;0.95;;;;;;;;;;5028240;28;20573;-78
2022/07/28 03:30:33;;;;;;;2.85;1.00;;;;;;;;;;5028090;28;20037;-79
2022/07/28 03:33:00;;;;;;;4.63;1.20;;;;;;;;;;5028089;28;20022;-78
2022/07/28 03:35:26;;;;;;;3.45;1.00;;;;;;;;;;5027730;28;20025;-79
2022/07/28 03:37:58;;;;;;;2.58;1.00;;;;;;;;;;5027805;28;20463;-78
2022/07/28 03:40:25;;;;;;;4.47;1.00;;;;;;;;;;5028053;28;20030;-79
2022/07/28 03:42:52;;;;;;;2.33;0.90;;;;;;;;;;5028194;28;20115;-79
2022/07/28 03:45:18;;;;;;;4.20;1.13;;;;;;;;;;5027771;28;20026;-79
2022/07/28 03:47:56;;;;;;;3.78;1.05;;;;;;;;;;5027735;28;20029;-79
2022/07/28 03:50:23;;;;;;;2.53;0.90;;;;;;;;;;5027511;28;20150;-79
2022/07/28 03:52:50;;;;;;;3.78;1.13;;;;;;;;;;5026285;28;20104;-79
2022/07/28 03:55:15;;;;;;;3.53;1.00;;;;;;;;;;5027529;28;20061;-80
2022/07/28 03:57:41;;;;;;;5.82;1.13;;;;;;;;;;5027848;28;20068;-78
2022/07/28 04:00:08;;;;;;;4.85;0.90;;;;;;;;;;5027667;28;20069;-79
2022/07/28 04:02:33;;;;;;;2.00;0.98;;;;;;;;;;5027304;28;20038;-78
2022/07/28 04:04:59;;;;;;;2.25;1.05;;;;;;;;;;5027410;28;20140;-78
2022/07/28 04:07:25;;;;;;;2.88;1.20;;;;;;;;;;5027363;28;20032;-78
2022/07/28 04:09:50;;;;;;;2.92;1.15;;;;;;;;;;5026216;28;20423;-79
2022/07/28 04:12:16;;;;;;;3.08;1.13;;;;;;;;;;5027517;28;20026;-79
2022/07/28 04:14:41;;;;;;;3.63;1.15;;;;;;;;;;5027324;28;20017;-79
2022/07/28 04:17:07;;;;;;;4.60;1.02;;;;;;;;;;5027375;28;20113;-79
2022/07/28 04:19:32;;;;;;;5.88;1.10;;;;;;;;;;5027371;28;20413;-79
2022/07/28 04:21:58;;;;;;;3.08;0.93;;;;;;;;;;5027280;28;20037;-79
2022/07/28 04:24:23;;;;;;;3.92;1.30;;;;;;;;;;5027254;28;20029;-80
2022/07/28 04:26:48;;;;;;;3.42;1.27;;;;;;;;;;5027034;28;20025;-79
2022/07/28 04:29:14;;;;;;;3.25;1.20;;;;;;;;;;5027147;28;20071;-79
2022/07/28 04:31:39;;;;;;;2.83;1.10;;;;;;;;;;5027221;28;20582;-78
2022/07/28 04:34:05;;;;;;;3.33;1.08;;;;;;;;;;5027286;28;20037;-78
2022/07/28 04:36:31;;;;;;;3.17;1.10;;;;;;;;;;5027074;28;20033;-79
2022/07/28 04:38:58;;;;;;;4.47;1.05;;;;;;;;;;5027158;28;20036;-77
2022/07/28 04:41:25;;;;;;;3.75;1.10;;;;;;;;;;5027570;28;20029;-79
2022/07/28 04:43:51;;;;;;;3.17;1.02;;;;;;;;;;5027008;28;20033;-79
2022/07/28 04:46:16;;;;;;;3.65;1.10;;;;;;;;;;5026840;28;20497;-79
2022/07/28 04:48:42;;;;;;;3.47;1.20;;;;;;;;;;5026921;28;20041;-78
2022/07/28 04:51:08;;;;;;;5.43;1.15;;;;;;;;;;5026750;28;20029;-79
2022/07/28 04:53:34;;;;;;;5.93;1.40;;;;;;;;;;5027013;28;20030;-78
2022/07/28 04:55:59;;;;;;;2.60;1.00;;;;;;;;;;5027032;28;20054;-80
2022/07/28 04:58:26;;;;;;;3.33;1.08;;;;;;;;;;5026887;28;20473;-79
2022/07/28 05:00:54;;;;;;;3.85;1.13;;;;;;;;;;5026767;28;20037;-76
2022/07/28 05:03:20;;;;;;;4.28;1.00;;;;;;;;;;5026390;28;20041;-79
2022/07/28 05:05:46;;;;;;;5.78;1.05;;;;;;;;;;5026708;28;20014;-78
2022/07/28 05:08:11;;;;;;;5.22;1.35;;;;;;;;;;5030202;28;20025;-79
2022/07/28 05:10:36;;;;;;;4.05;1.00;;;;;;;;;;5030261;28;20026;-78
2022/07/28 05:13:05;;;;;;;5.18;1.38;;;;;;;;;;5030528;28;20097;-79
2022/07/28 05:15:31;;;;;;;4.93;1.30;;;;;;;;;;5029933;28;20021;-77
2022/07/28 05:17:57;;;;;;;4.70;1.23;;;;;;;;;;5028714;28;20089;-79
2022/07/28 05:20:22;;;;;;;5.28;1.10;;;;;;;;;;5030039;28;20112;-78
2022/07/28 05:22:49;;;;;;;4.93;1.38;;;;;;;;;;5028590;28;20026;-79
2022/07/28 05:25:21;;;;;;;5.55;1.10;;;;;;;;;;5028960;28;20017;-78
2022/07/28 05:27:47;;;;;;;3.25;1.15;;;;;;;;;;5030234;28;20052;-78
2022/07/28 05:30:14;;;;;;;3.97;1.17;;;;;;;;;;5029918;28;20503;-79
2022/07/28 05:32:39;;;;;;;4.43;1.17;;;;;;;;;;5029989;28;20650;-78
2022/07/28 05:35:06;;;;;;;4.78;1.42;;;;;;;;;;5029792;28;20049;-79
2022/07/28 05:37:33;;;;;;;3.17;1.23;;;;;;;;;;5029536;28;20028;-78
2022/07/28 05:39:59;;;;;;;4.35;1.30;;;;;;;;;;5029794;28;20043;-79
2022/07/28 05:42:27;;;;;;;7.28;1.40;;;;;;;;;;5029882;28;20018;-77
2022/07/28 05:44:52;;;;;;;6.32;1.20;;;;;;;;;;5029810;28;20083;-79
2022/07/28 05:47:18;;;;;;;6.55;1.23;;;;;;;;;;5029649;28;20022;-79
2022/07/28 05:49:43;;;;;;;6.80;1.40;;;;;;;;;;5029569;28;20113;-78
2022/07/28 05:52:09;;;;;;;5.55;1.30;;;;;;;;;;5029387;28;20033;-78
2022/07/28 05:54:34;;;;;;;3.45;1.17;;;;;;;;;;5029446;28;20033;-76
2022/07/28 05:56:59;;;;;;;5.35;1.20;;;;;;;;;;5029542;28;20118;-79
2022/07/28 05:59:25;;;;;;;4.03;1.38;;;;;;;;;;5029739;28;20121;-78
2022/07/28 06:01:50;;;;;;;3.00;1.20;;;;;;;;;;5029256;28;20049;-77
2022/07/28 06:04:16;;;;;;;4.63;1.25;;;;;;;;;;5029599;28;20071;-78
2022/07/28 06:06:41;;;;;;;7.63;1.38;;;;;;;;;;5029114;28;20032;-79
2022/07/28 06:09:06;;;;;;;7.53;1.20;;;;;;;;;;5029277;28;20033;-79
2022/07/28 06:11:32;;;;;;;5.65;1.50;;;;;;;;;;5029659;28;20108;-79
2022/07/28 06:13:57;;;;;;;6.47;1.48;;;;;;;;;;5029148;28;20021;-79
2022/07/28 06:16:23;;;;;;;5.20;1.20;;;;;;;;;;5029264;28;20038;-78
2022/07/28 06:18:49;;;;;;;6.43;1.40;;;;;;;;;;5028030;28;20481;-79
2022/07/28 06:21:15;;;;;;;5.60;1.30;;;;;;;;;;5029048;28;20033;-79
2022/07/28 06:23:40;;;;;;;3.88;1.48;;;;;;;;;;5029243;28;20034;-76
2022/07/28 06:26:06;;;;;;;4.85;1.38;;;;;;;;;;5028895;28;20340;-76
2022/07/28 06:28:31;;;;;;;6.70;1.50;;;;;;;;;;5027705;28;20415;-75
2022/07/28 06:30:57;;;;;;;4.70;1.20;;;;;;;;;;5028862;28;20579;-76
2022/07/28 06:33:22;;;;;;;6.03;1.50;;;;;;;;;;5028927;28;20037;-77
2022/07/28 06:35:48;;;;;;;3.50;1.30;;;;;;;;;;5028915;28;20036;-78
2022/07/28 06:38:13;;;;;;;7.20;1.50;;;;;;;;;;5028898;28;20021;-77
2022/07/28 06:40:39;;;;;;;8.25;1.70;;;;;;;;;;5028909;28;20021;-78
2022/07/28 06:43:04;;;;;;;8.75;1.48;;;;;;;;;;5028780;28;20129;-77
2022/07/28 06:45:30;;;;;;;4.85;1.38;;;;;;;;;;5027476;28;20033;-78
2022/07/28 06:47:55;;;;;;;7.38;1.30;;;;;;;;;;5028499;28;20102;-76
2022/07/28 06:50:21;;;;;;;5.85;1.30;;;;;;;;;;5028576;28;20033;-74
2022/07/28 06:52:46;;;;;;;8.57;1.70;;;;;;;;;;5028556;28;20029;-75
2022/07/28 06:55:14;;;;;;;8.00;1.40;;;;;;;;;;5029075;28;20033;-74
2022/07/28 06:57:40;;;;;;;8.85;1.65;;;;;;;;;;5027096;28;20038;-74
2022/07/28 07:00:07;;;;;;;6.00;1.40;;;;;;;;;;5028623;28;20025;-75
2022/07/28 07:02:38;;;;;;;7.95;1.45;;;;;;;;;;5028172;28;20566;-75
2022/07/28 07:05:04;;;;;;;3.85;1.38;;;;;;;;;;5028450;28;20030;-74
2022/07/28 07:07:30;;;;;;;4.68;1.27;;;;;;;;;;5028185;28;20408;-75
2022/07/28 07:09:55;;;;;;;5.90;1.80;;;;;;;;;;5028388;28;20454;-76
2022/07/28 07:12:21;;;;;;;5.25;1.48;;;;;;;;;;5028483;28;20033;-77
2022/07/28 07:14:46;;;;;;;4.38;1.40;;;;;;;;;;5028441;28;20021;-76
2022/07/28 07:17:12;;;;;;;4.40;1.25;;;;;;;;;;5028134;28;20114;-75
2022/07/28 07:19:37;;;;;;;5.68;1.30;;;;;;;;;;5028257;28;20475;-76
2022/07/28 07:22:03;;;;;;;3.13;1.15;;;;;;;;;;5028043;28;20025;-76
2022/07/28 07:24:28;;;;;;;5.97;1.33;;;;;;;;;;5028139;28;20022;-76
2022/07/28 07:26:54;;;;;;;7.45;1.40;;;;;;;;;;5027871;28;20564;-78
2022/07/28 07:29:21;;;;;;;7.32;1.50;;;;;;;;;;5027705;28;20030;-77
2022/07/28 07:31:47;;;;;;;5.65;1.13;;;;;;;;;;5028110;28;20026;-77
2022/07/28 07:34:14;;;;;;;4.63;1.30;;;;;;;;;;5028014;28;20489;-79
2022/07/28 07:36:40;;;;;;;4.15;2.00;;;;;;;;;;5027683;28;20026;-77
2022/07/28 07:39:05;;;;;;;3.83;1.20;;;;;;;;;;5026540;28;20025;-78
2022/07/28 07:41:31;;;;;;;3.70;1.05;;;;;;;;;;5027871;28;20044;-78
2022/07/28 07:43:56;;;;;;;10.05;1.27;;;;;;;;;;5027848;28;20465;-77
2022/07/28 07:46:22;;;;;;;5.20;1.30;;;;;;;;;;5027808;28;20022;-77
2022/07/28 07:48:47;;;;;;;6.07;1.20;;;;;;;;;;5027906;28;20026;-77
2022/07/28 07:51:12;;;;;;;4.43;1.27;;;;;;;;;;5027654;28;20116;-76
2022/07/28 07:53:38;;;;;;;6.68;1.30;;;;;;;;;;5027826;28;20036;-78
2022/07/28 07:56:03;;;;;;;6.32;1.10;;;;;;;;;;5027441;28;20056;-78
2022/07/28 07:58:29;;;;;;;3.95;1.20;;;;;;;;;;5027336;28;20029;-78
2022/07/28 08:00:54;;;;;;;6.30;1.08;;;;;;;;;;5027561;28;20330;-77
2022/07/28 08:03:20;;;;;;;8.32;1.35;;;;;;;;;;5027287;28;20052;-77
2022/07/28 08:05:45;;;;;;;3.70;1.02;;;;;;;;;;5027681;28;20029;-78
2022/07/28 08:08:11;;;;;;;8.48;1.27;;;;;;;;;;5027293;28;20544;-77
2022/07/28 08:10:38;;;;;;;6.53;1.10;;;;;;;;;;5027440;28;20071;-77
2022/07/28 08:13:06;;;;;;;4.78;1.10;;;;;;;;;;5027464;28;20033;-78
2022/07/28 08:15:32;;;;;;;3.45;1.00;;;;;;;;;;5027258;28;20038;-78
2022/07/28 08:17:58;;;;;;;3.70;1.00;;;;;;;;;;5027243;28;20026;-77
2022/07/28 08:20:24;;;;;;;2.58;1.10;;;;;;;;;;5026364;28;20458;-78
2022/07/28 08:22:51;;;;;;;3.17;1.00;;;;;;;;;;5027416;28;20025;-80
2022/07/28 08:25:17;;;;;;;3.95;1.00;;;;;;;;;;5026228;28;20025;-78
2022/07/28 08:27:43;;;;;;;4.40;1.10;;;;;;;;;;5027072;28;20025;-79
2022/07/28 08:30:10;;;;;;;4.93;1.17;;;;;;;;;;5027019;28;20097;-79
2022/07/28 08:32:37;;;;;;;7.38;1.23;;;;;;;;;;5027119;28;20022;-79
2022/07/28 08:35:03;;;;;;;4.30;0.90;;;;;;;;;;5027204;28;20647;-79
2022/07/28 08:37:28;;;;;;;2.80;1.00;;;;;;;;;;5026940;28;20030;-78
2022/07/28 08:39:54;;;;;;;2.72;0.90;;;;;;;;;;5027034;28;20036;-79
2022/07/28 08:42:34;;;;;;;2.63;1.10;;;;;;;;;;5029322;28;20037;-79
2022/07/28 08:45:06;;;;;;;4.80;1.10;;;;;;;;;;5030651;28;20534;-79
2022/07/28 08:47:34;;;;;;;7.80;1.30;;;;;;;;;;5030553;28;20045;-78
2022/07/28 08:50:00;;;;;;;4.60;1.20;;;;;;;;;;5030456;28;20389;-78
2022/07/28 08:52:32;;;;;;;2.78;1.10;;;;;;;;;;5030715;28;20034;-79
2022/07/28 08:55:01;;;;;;;2.90;0.98;;;;;;;;;;5030704;28;20030;-79
2022/07/28 08:57:32;;;;;;;5.10;1.17;;;;;;;;;;5030401;28;20029;-79
2022/07/28 08:59:58;;;;;;;4.75;1.20;;;;;;;;;;5030561;28;20482;-79
2022/07/28 09:02:27;;;;;;;4.35;1.20;;;;;;;;;;5030113;28;20052;-78
2022/07/28 09:04:58;;;;;;;4.40;1.20;;;;;;;;;;5030290;28;20025;-78
2022/07/28 09:07:25;;;;;;;6.45;1.45;;;;;;;;;;5029982;28;20078;-78
2022/07/28 09:09:51;;;;;;;3.58;1.17;;;;;;;;;;5030096;28;20037;-78
2022/07/28 09:12:17;;;;;;;6.97;1.20;;;;;;;;;;5030312;28;20014;-79
2022/07/28 09:14:42;;;;;;;4.45;0.90;;;;;;;;;;5030206;28;20074;-78
2022/07/28 09:17:08;;;;;;;4.63;1.00;;;;;;;;;;5030137;28;20065;-79
2022/07/28 09:19:33;;;;;;;4.15;1.42;;;;;;;;;;5030139;28;20032;-79
2022/07/28 09:21:59;;;;;;;3.75;1.13;;;;;;;;;;5029979;28;20018;-79
2022/07/28 09:24:37;;;;;;;4.65;1.27;;;;;;;;;;5030183;28;20552;-77
2022/07/28 09:27:06;;;;;;;4.50;1.10;;;;;;;;;;5029936;28;20057;-78
2022/07/28 09:29:32;;;;;;;3.13;1.02;;;;;;;;;;5029983;28;20025;-78
2022/07/28 09:31:58;;;;;;;3.92;1.13;;;;;;;;;;5029994;28;20031;-78
2022/07/28 09:34:23;;;;;;;5.95;1.33;;;;;;;;;;5030029;28;20033;-79
2022/07/28 09:36:49;;;;;;;5.40;1.15;;;;;;;;;;5029822;28;20413;-77
2022/07/28 09:39:32;;;;;;;2.70;1.10;;;;;;;;;;5029674;28;20097;-77
2022/07/28 09:41:57;;;;;;;5.53;1.20;;;;;;;;;;5029709;28;20660;-78
2022/07/28 09:44:25;;;;;;;7.65;1.00;;;;;;;;;;5028434;28;20049;-78
2022/07/28 09:46:51;;;;;;;2.90;1.10;;;;;;;;;;5029788;28;20021;-77
2022/07/28 09:49:17;;;;;;;4.13;1.00;;;;;;;;;;5029621;28;20032;-78
2022/07/28 09:51:59;;;;;;;5.88;1.20;;;;;;;;;;5029542;28;20090;-78
2022/07/28 09:54:24;;;;;;;6.05;1.40;;;;;;;;;;5029792;28;20025;-76
2022/07/28 09:56:50;;;;;;;3.00;1.10;;;;;;;;;;5029497;28;20030;-77
2022/07/28 09:59:17;;;;;;;7.65;1.13;;;;;;;;;;5029371;28;20027;-78
2022/07/28 10:01:54;;;;;;;4.40;1.30;;;;;;;;;;5029427;28;20025;-78
2022/07/28 10:04:29;;;;;;;3.13;1.23;;;;;;;;;;5029403;28;20493;-78
2022/07/28 10:07:08;;;;;;;6.10;1.10;;;;;;;;;;5029372;28;20025;-77
2022/07/28 10:09:34;;;;;;;4.97;1.37;;;;;;;;;;5029241;28;20028;-78
2022/07/28 10:12:20;;;;;;;2.58;1.00;;;;;;;;;;5029393;28;20014;-79
2022/07/28 10:14:46;;;;;;;7.43;1.30;;;;;;;;;;5028155;28;20028;-77
2022/07/28 10:17:42;;;;;;;3.28;1.00;;;;;;;;;;5029245;28;20029;-79
2022/07/28 10:20:08;;;;;;;6.55;1.35;;;;;;;;;;5033512;28;20033;-78
2022/07/28 10:22:36;;;;;;;6.15;1.40;;;;;;;;;;5028951;28;20032;-77
2022/07/28 10:25:13;;;;;;;3.70;1.33;;;;;;;;;;5029264;28;20025;-78
2022/07/28 10:27:41;;;;;;;4.70;1.20;;;;;;;;;;5028957;28;20508;-76
2022/07/28 10:30:07;;;;;;;4.60;1.20;;;;;;;;;;5028882;28;20029;-77
2022/07/28 10:32:40;;;;;;;4.50;1.15;;;;;;;;;;5029079;28;20036;-75
2022/07/28 10:35:09;;;;;;;3.92;1.05;;;;;;;;;;5028867;28;20622;-77
2022/07/28 10:37:41;;;;;;;3.33;1.20;;;;;;;;;;5027505;28;20030;-77
2022/07/28 10:40:09;;;;;;;6.32;1.13;;;;;;;;;;5029006;28;20160;-76
2022/07/28 10:42:36;;;;;;;3.60;1.13;;;;;;;;;;5028873;28;20104;-76
2022/07/28 10:45:02;;;;;;;3.45;1.15;;;;;;;;;;5028992;28;20021;-75
2022/07/28 10:47:28;;;;;;;5.15;1.20;;;;;;;;;;5028679;28;20022;-77
2022/07/28 10:49:55;;;;;;;7.20;1.38;;;;;;;;;;5028343;28;20052;-76
2022/07/28 10:52:21;;;;;;;6.15;1.20;;;;;;;;;;5028520;28;20033;-76
2022/07/28 10:55:08;;;;;;;4.82;1.40;;;;;;;;;;5028557;28;20030;-76
2022/07/28 10:57:40;;;;;;;4.35;1.33;;;;;;;;;;5028919;28;20451;-76
2022/07/28 11:00:17;;;;;;;4.18;1.10;;;;;;;;;;5028594;28;20174;-77
2022/07/28 11:02:57;;;;;;;4.00;1.30;;;;;;;;;;5028434;28;20054;-77
2022/07/28 11:05:28;;;;;;;3.43;1.10;;;;;;;;;;5027789;28;20053;-77
2022/07/28 11:07:55;;;;;;;3.20;1.30;;;;;;;;;;5028073;28;20048;-76
2022/07/28 11:10:21;;;;;;;6.18;1.10;;;;;;;;;;5028367;28;20029;-77
2022/07/28 11:12:57;;;;;;;3.92;1.30;;;;;;;;;;5028411;28;20062;-76
2022/07/28 11:15:31;;;;;;;4.15;1.20;;;;;;;;;;5027105;28;20025;-76
2022/07/28 11:18:06;;;;;;;4.90;1.30;;;;;;;;;;5028154;28;20045;-76
2022/07/28 11:21:04;;;;;;;2.80;1.17;;;;;;;;;;5028395;28;20040;-76
2022/07/28 11:23:45;;;;;;;3.08;1.20;;;;;;;;;;5031808;28;20082;-77
2022/07/28 11:26:20;;;;;;;6.45;1.30;;;;;;;;;;5028066;28;20026;-78
2022/07/28 11:29:07;;;;;;;6.78;1.38;;;;;;;;;;5028047;28;20057;-78
2022/07/28 11:31:47;;;;;;;2.80;1.02;;;;;;;;;;5028059;28;20029;-75
2022/07/28 11:34:21;;;;;;;4.22;1.30;;;;;;;;;;5028153;28;20030;-75
2022/07/28 11:37:04;;;;;;;5.65;1.38;;;;;;;;;;5028006;28;20029;-75
2022/07/28 11:39:30;;;;;;;6.13;1.30;;;;;;;;;;5027913;28;20079;-76
2022/07/28 11:41:56;;;;;;;4.95;1.35;;;;;;;;;;5027826;28;20025;-75
2022/07/28 11:44:29;;;;;;;4.72;1.20;;;;;;;;;;5027870;28;20373;-76
2022/07/28 11:47:23;;;;;;;5.63;1.20;;;;;;;;;;5027780;28;20184;-75
2022/07/28 11:50:12;;;;;;;5.03;1.30;;;;;;;;;;5027621;28;20078;-76
2022/07/28 11:52:39;;;;;;;5.60;1.38;;;;;;;;;;5027634;28;20060;-76
2022/07/28 11:55:05;;;;;;;4.13;1.40;;;;;;;;;;5027877;28;20033;-75
2022/07/28 11:57:39;;;;;;;4.82;1.27;;;;;;;;;;5027736;28;20029;-75
2022/07/28 12:00:06;;;;;;;6.20;1.27;;;;;;;;;;5027564;28;20033;-76
2022/07/28 12:02:33;;;;;;;5.18;1.23;;;;;;;;;;5027607;28;20080;-76
2022/07/28 12:05:08;;;;;;;9.48;1.33;;;;;;;;;;5027439;28;20058;-76
2022/07/28 12:07:39;;;;;;;10.55;1.52;;;;;;;;;;5027582;28;20031;-76
2022/07/28 12:10:26;;;;;;;7.30;1.40;;;;;;;;;;5027207;28;20021;-76
2022/07/28 12:12:54;;;;;;;8.43;1.70;;;;;;;;;;5027617;28;20033;-75
2022/07/28 12:15:20;;;;;;;6.05;1.30;;;;;;;;;;5027492;28;20025;-75
2022/07/28 12:17:48;;;;;;;5.82;1.40;;;;;;;;;;5027358;28;20037;-75
2022/07/28 12:20:16;;;;;;;3.17;1.20;;;;;;;;;;5025932;28;20602;-76
2022/07/28 12:22:58;;;;;;;2.78;1.20;;;;;;;;;;5027193;28;20034;-77
2022/07/28 12:25:24;;;;;;;3.78;1.15;;;;;;;;;;5027376;28;20046;-79
2022/07/28 12:27:49;;;;;;;6.13;1.38;;;;;;;;;;5027437;28;20029;-79
2022/07/28 12:30:23;;;;;;;3.80;1.25;;;;;;;;;;5027037;28;20082;-78
2022/07/28 12:32:48;;;;;;;3.10;1.10;;;;;;;;;;5027259;28;20017;-78
2022/07/28 12:35:14;;;;;;;6.90;1.30;;;;;;;;;;5027142;28;20026;-76
2022/07/28 12:37:42;;;;;;;3.30;1.30;;;;;;;;;;5026910;28;20025;-79
2022/07/28 12:40:11;;;;;;;3.00;1.10;;;;;;;;;;5027026;28;20075;-79
2022/07/28 12:42:36;;;;;;;3.75;1.50;;;;;;;;;;5027161;28;20049;-77
2022/07/28 12:45:04;;;;;;;6.95;1.25;;;;;;;;;;5027174;28;20049;-77
2022/07/28 12:47:30;;;;;;;5.07;1.20;;;;;;;;;;5027198;28;20026;-78
2022/07/28 12:50:09;;;;;;;5.70;1.30;;;;;;;;;;5026673;28;20658;-78
2022/07/28 12:52:35;;;;;;;4.28;1.23;;;;;;;;;;5026796;28;20026;-77
2022/07/28 12:55:00;;;;;;;3.17;1.30;;;;;;;;;;5026913;28;20422;-79
2022/07/28 12:57:46;;;;;;;3.38;1.30;;;;;;;;;;5026911;28;20390;-79
2022/07/28 13:00:12;;;;;;;2.95;1.10;;;;;;;;;;5026695;28;20036;-79
2022/07/28 13:02:37;;;;;;;4.38;1.20;;;;;;;;;;5026600;28;20055;-79
2022/07/28 13:05:06;;;;;;;4.45;1.20;;;;;;;;;;5026967;28;20029;-79
2022/07/28 13:07:32;;;;;;;4.65;1.30;;;;;;;;;;5025405;28;20041;-78
2022/07/28 13:10:08;;;;;;;5.55;1.20;;;;;;;;;;5026392;28;20445;-77
2022/07/28 13:12:35;;;;;;;3.70;1.23;;;;;;;;;;5026626;28;20026;-78
2022/07/28 13:15:05;;;;;;;2.25;1.23;;;;;;;;;;5026709;28;20029;-78
2022/07/28 13:17:51;;;;;;;;;;;;;;;;;;5027158;28;20026;-79
2022/07/28 13:20:17;;;;;;;3.25;1.10;;;;;;;;;;5026501;28;19920;-77
2022/07/28 13:22:45;;;;;;;3.72;1.10;;;;;;;;;;5026624;28;20108;-79
2022/07/28 13:25:11;;;;;;;3.75;1.20;;;;;;;;;;5026562;28;20033;-78
2022/07/28 13:27:37;;;;;;;6.30;1.23;;;;;;;;;;5027479;28;20113;-78
2022/07/28 13:30:03;;;;;;;4.90;1.20;;;;;;;;;;5030073;28;20082;-78
2022/07/28 13:32:29;;;;;;;6.40;1.20;;;;;;;;;;5030190;28;20025;-77
2022/07/28 13:34:55;;;;;;;8.52;1.40;;;;;;;;;;5028760;28;20996;-77
2022/07/28 13:37:22;;;;;;;7.45;1.40;;;;;;;;;;5030080;28;20500;-78
2022/07/28 13:39:49;;;;;;;5.63;1.60;;;;;;;;;;5029714;28;20037;-77
2022/07/28 13:42:14;;;;;;;2.42;1.10;;;;;;;;;;5029919;28;20068;-77
2022/07/28 13:44:39;;;;;;;7.57;1.30;;;;;;;;;;5029662;28;20049;-78
2022/07/28 13:47:05;;;;;;;3.40;1.10;;;;;;;;;;5029557;28;20030;-78
2022/07/28 13:49:32;;;;;;;4.80;1.20;;;;;;;;;;5029593;28;20060;-78
2022/07/28 13:51:59;;;;;;;4.90;1.20;;;;;;;;;;5029619;28;20420;-79
2022/07/28 13:54:24;;;;;;;5.35;1.27;;;;;;;;;;5029826;28;20025;-79
2022/07/28 13:56:50;;;;;;;3.42;1.20;;;;;;;;;;5029681;28;20484;-78
2022/07/28 13:59:15;;;;;;;2.92;1.33;;;;;;;;;;5029375;28;20071;-76
2022/07/28 14:01:41;;;;;;;2.40;1.05;;;;;;;;;;5029303;28;20072;-79
2022/07/28 14:04:07;;;;;;;3.75;1.30;;;;;;;;;;5029270;28;20060;-78
2022/07/28 14:06:33;;;;;;;5.50;1.98;;;;;;;;;;5029310;28;20037;-78
2022/07/28 14:08:59;;;;;;;5.93;1.45;;;;;;;;;;5029497;28;20037;-76
2022/07/28 14:11:24;;;;;;;3.60;1.30;;;;;;;;;;5029480;28;20037;-76
2022/07/28 14:13:53;;;;;;;5.68;1.42;;;;;;;;;;5029356;28;20018;-76
2022/07/28 14:16:19;;;;;;;4.55;1.30;;;;;;;;;;5029505;28;20029;-77
2022/07/28 14:18:45;;;;;;;7.40;1.52;;;;;;;;;;5027778;28;20357;-76
2022/07/28 14:21:10;;;;;;;6.43;1.50;;;;;;;;;;5028863;28;20029;-76
2022/07/28 14:23:36;;;;;;;2.95;1.27;;;;;;;;;;5029156;28;20420;-76
2022/07/28 14:26:01;;;;;;;3.42;1.30;;;;;;;;;;5029279;28;20465;-77
2022/07/28 14:28:27;;;;;;;4.05;1.40;;;;;;;;;;5029463;28;20026;-76
2022/07/28 14:30:53;;;;;;;6.35;1.30;;;;;;;;;;5028895;28;20550;-76
2022/07/28 14:33:18;;;;;;;4.28;1.50;;;;;;;;;;5029132;28;20025;-75
2022/07/28 14:35:44;;;;;;;4.97;1.20;;;;;;;;;;5029111;28;20013;-75
2022/07/28 14:38:10;;;;;;;6.22;1.25;;;;;;;;;;5027372;28;20025;-79
2022/07/28 14:40:36;;;;;;;6.22;1.40;;;;;;;;;;5027864;28;20524;-76
2022/07/28 14:43:04;;;;;;;6.88;1.35;;;;;;;;;;5028992;28;20022;-77
2022/07/28 14:45:33;;;;;;;7.75;1.20;;;;;;;;;;5028989;28;20022;-77
2022/07/28 14:47:59;;;;;;;4.43;1.30;;;;;;;;;;5027663;28;20098;-77
2022/07/28 14:50:25;;;;;;;6.43;1.40;;;;;;;;;;5028577;28;20025;-76
2022/07/28 14:52:51;;;;;;;4.90;1.40;;;;;;;;;;5028618;28;20398;-79